Time;durP1;ratioP1;P1;durP2;ratioP2;P2;SDS_P1;SDS_P2;PMS_P1;PMS_P2;Temp;Humidity;BMP_temperature;BMP_pressure;BME280_temperature;BME280_humidity;BME280_pressure;Samples;Min_cycle;Max_cycle;Signal;HPM_P1;HPM_P2
2021/06/01 00:01:06;;;;;;;3.58;1.70;;;22.50;48.30;;;;;;6284464;28;20408;-76
2021/06/01 00:04:09;;;;;;;8.38;2.17;;;22.40;48.50;;;;;;6284314;28;20032;-77
2021/06/01 00:07:10;;;;;;;3.90;1.60;;;22.40;48.60;;;;;;6300634;28;20064;-76
2021/06/01 00:10:12;;;;;;;6.00;1.63;;;22.40;48.70;;;;;;6283538;28;20024;-76
2021/06/01 00:13:13;;;;;;;3.10;1.70;;;22.40;48.80;;;;;;6267355;28;20063;-76
2021/06/01 00:16:14;;;;;;;2.90;2.00;;;22.30;48.80;;;;;;6283798;28;20036;-76
2021/06/01 00:19:15;;;;;;;3.40;1.85;;;22.30;48.90;;;;;;6285302;28;20511;-76
2021/06/01 00:22:16;;;;;;;4.43;2.20;;;22.30;48.90;;;;;;6300097;28;20033;-76
2021/06/01 00:25:17;;;;;;;3.17;1.80;;;22.30;48.90;;;;;;6298834;28;20056;-75
2021/06/01 00:28:17;;;;;;;3.85;2.00;;;22.20;48.90;;;;;;6300001;28;20028;-76
2021/06/01 00:31:20;;;;;;;2.92;1.95;;;22.20;48.90;;;;;;6283094;28;20469;-75
2021/06/01 00:34:21;;;;;;;3.35;1.60;;;22.20;48.90;;;;;;6298832;28;20036;-76
2021/06/01 00:37:22;;;;;;;2.58;2.00;;;22.20;48.80;;;;;;6298783;28;20484;-76
2021/06/01 00:40:23;;;;;;;5.25;2.15;;;22.20;48.80;;;;;;6266126;28;20033;-76
2021/06/01 00:43:24;;;;;;;4.65;1.88;;;22.20;48.80;;;;;;6266146;28;20028;-76
2021/06/01 00:46:25;;;;;;;10.90;1.77;;;22.20;48.60;;;;;;6283509;28;20036;-76
2021/06/01 00:49:25;;;;;;;4.15;1.80;;;22.30;48.50;;;;;;6267143;28;20051;-76
2021/06/01 00:52:27;;;;;;;1.90;1.60;;;22.20;48.40;;;;;;6290399;28;20059;-76
2021/06/01 00:55:28;;;;;;;2.45;1.90;;;22.20;48.40;;;;;;6281100;28;20029;-76
2021/06/01 00:58:29;;;;;;;2.75;2.15;;;22.20;48.50;;;;;;6274723;28;20064;-77
2021/06/01 01:01:30;;;;;;;4.18;1.98;;;22.20;48.50;;;;;;6240895;28;20115;-76
2021/06/01 01:04:32;;;;;;;3.80;2.50;;;22.20;48.50;;;;;;6241686;28;20041;-75
2021/06/01 01:07:43;;;;;;;3.88;1.80;;;22.20;48.50;;;;;;6259312;28;20052;-75
2021/06/01 01:10:45;;;;;;;6.28;1.77;;;22.20;48.50;;;;;;6282425;28;20036;-75
2021/06/01 01:13:56;;;;;;;2.88;1.75;;;22.20;48.50;;;;;;6282379;28;20040;-75
2021/06/01 01:17:07;;;;;;;1.50;1.40;;;22.10;48.60;;;;;;6264051;28;20044;-75
2021/06/01 01:20:21;;;;;;;2.60;1.73;;;22.10;48.70;;;;;;6277682;28;20318;-75
2021/06/01 01:23:25;;;;;;;2.53;1.90;;;22.10;48.80;;;;;;6273870;28;20036;-75
2021/06/01 01:26:51;;;;;;;1.55;1.40;;;22.00;49.00;;;;;;6289130;28;20124;-76
2021/06/01 01:29:53;;;;;;;2.45;1.70;;;22.00;49.00;;;;;;6289350;28;20082;-76
2021/06/01 01:33:03;;;;;;;2.85;1.98;;;22.00;49.00;;;;;;6269201;28;20033;-76
2021/06/01 01:36:07;;;;;;;2.75;2.00;;;22.00;49.10;;;;;;6304374;28;20089;-76
2021/06/01 01:39:09;;;;;;;3.17;2.10;;;22.00;49.00;;;;;;6273897;28;20048;-76
2021/06/01 01:42:12;;;;;;;2.05;1.77;;;22.00;49.20;;;;;;6297032;28;20086;-76
2021/06/01 01:45:20;;;;;;;2.10;1.77;;;21.90;49.10;;;;;;6298106;28;20044;-76
2021/06/01 01:51:52;;;;;;;8.70;1.88;;;22.00;49.10;;;;;;6281051;28;20259;-76
2021/06/01 01:54:55;;;;;;;3.13;2.35;;;22.00;49.10;;;;;;6280481;28;20041;-76
2021/06/01 01:57:56;;;;;;;3.60;1.70;;;21.90;49.10;;;;;;6279450;28;20066;-75
2021/06/01 02:00:57;;;;;;;2.47;1.90;;;21.90;49.10;;;;;;6297895;28;20366;-75
2021/06/01 02:03:58;;;;;;;2.85;1.85;;;21.90;49.20;;;;;;6296464;28;20044;-75
2021/06/01 02:06:59;;;;;;;5.93;2.20;;;21.90;49.10;;;;;;6295706;28;20167;-75
2021/06/01 02:10:03;;;;;;;3.05;1.75;;;21.90;49.20;;;;;;6296571;28;20029;-76
2021/06/01 02:13:04;;;;;;;2.13;1.75;;;21.80;49.20;;;;;;6296142;28;20029;-75
2021/06/01 02:16:05;;;;;;;2.72;1.70;;;21.80;49.30;;;;;;6279903;28;20449;-75
2021/06/01 02:19:08;;;;;;;6.35;2.15;;;21.80;49.30;;;;;;6278841;28;20052;-75
2021/06/01 02:25:29;;;;;;;1.98;1.75;;;21.70;49.40;;;;;;6297276;28;20327;-75
2021/06/01 02:28:43;;;;;;;2.60;1.70;;;21.70;49.60;;;;;;6296802;28;20123;-75
2021/06/01 02:31:46;;;;;;;2.20;1.90;;;21.70;49.70;;;;;;6278051;28;20032;-75
2021/06/01 02:34:51;;;;;;;3.10;2.30;;;21.70;49.70;;;;;;6269648;28;20067;-75
2021/06/01 02:37:53;;;;;;;3.42;1.60;;;21.70;49.80;;;;;;6252996;28;20045;-75
2021/06/01 02:40:55;;;;;;;4.28;2.13;;;21.70;50.00;;;;;;6270912;28;20484;-76
2021/06/01 02:43:56;;;;;;;2.22;1.98;;;21.70;50.10;;;;;;6270371;28;20048;-76
2021/06/01 02:46:58;;;;;;;2.58;2.10;;;21.60;50.20;;;;;;6253330;28;20033;-76
2021/06/01 02:50:03;;;;;;;1.92;1.70;;;21.60;50.30;;;;;;6270680;28;20040;-76
2021/06/01 02:53:06;;;;;;;2.30;1.90;;;21.60;50.40;;;;;;6271777;28;20043;-76
2021/06/01 02:56:07;;;;;;;2.13;1.85;;;21.50;50.40;;;;;;6265345;28;20033;-75
2021/06/01 02:59:08;;;;;;;3.58;2.03;;;21.50;50.60;;;;;;6289748;28;20098;-75
2021/06/01 03:02:09;;;;;;;3.10;1.90;;;21.50;50.50;;;;;;6282943;28;20503;-75
2021/06/01 03:05:11;;;;;;;4.57;1.63;;;21.50;50.70;;;;;;6299746;28;20028;-76
2021/06/01 03:08:21;;;;;;;4.95;2.20;;;21.40;50.70;;;;;;6275987;28;20036;-75
2021/06/01 03:11:22;;;;;;;4.18;1.73;;;21.40;50.80;;;;;;6289298;28;20071;-75
2021/06/01 03:14:23;;;;;;;3.17;1.92;;;21.40;50.80;;;;;;6274553;28;20429;-75
2021/06/01 03:17:24;;;;;;;8.98;2.15;;;21.30;51.00;;;;;;6257984;28;20055;-75
2021/06/01 03:20:25;;;;;;;3.53;1.88;;;21.30;51.10;;;;;;6247207;28;20069;-75
2021/06/01 03:23:26;;;;;;;2.92;2.17;;;21.30;51.20;;;;;;6282899;28;20133;-76
2021/06/01 03:26:27;;;;;;;2.40;1.80;;;21.20;51.40;;;;;;6289205;28;20484;-76
2021/06/01 03:29:28;;;;;;;5.80;2.08;;;21.20;51.40;;;;;;6297969;28;20051;-75
2021/06/01 03:32:29;;;;;;;2.20;1.90;;;21.20;51.50;;;;;;6301741;28;20044;-76
2021/06/01 03:35:31;;;;;;;4.28;2.13;;;21.20;51.50;;;;;;6290631;28;20477;-76
2021/06/01 03:38:34;;;;;;;3.67;1.95;;;21.10;51.60;;;;;;6315395;28;20110;-76
2021/06/01 03:41:36;;;;;;;3.28;2.22;;;21.10;51.70;;;;;;6265505;28;20047;-75
2021/06/01 03:44:47;;;;;;;3.83;2.30;;;21.10;51.80;;;;;;6281860;28;20432;-75
2021/06/01 03:47:47;;;;;;;5.22;2.70;;;21.00;52.00;;;;;;6282286;28;20134;-76
2021/06/01 03:50:48;;;;;;;2.92;2.33;;;21.00;52.10;;;;;;6299543;28;20044;-75
2021/06/01 03:53:50;;;;;;;4.15;1.92;;;21.00;52.20;;;;;;6298149;28;20036;-74
2021/06/01 03:56:51;;;;;;;9.15;2.33;;;20.90;52.30;;;;;;6298049;28;20028;-75
2021/06/01 03:59:52;;;;;;;3.40;2.50;;;20.90;52.40;;;;;;6281618;28;20024;-75
2021/06/01 04:02:56;;;;;;;4.30;2.40;;;20.90;52.50;;;;;;6299250;28;20509;-76
2021/06/01 04:05:57;;;;;;;2.65;1.80;;;20.90;52.60;;;;;;6264485;28;20123;-76
2021/06/01 04:08:58;;;;;;;3.25;1.98;;;20.80;52.60;;;;;;6265212;28;20033;-76
2021/06/01 04:11:59;;;;;;;2.83;1.90;;;20.80;52.70;;;;;;6254434;28;20037;-76
2021/06/01 04:15:00;;;;;;;5.15;2.28;;;20.70;52.90;;;;;;6281489;28;20065;-75
2021/06/01 04:18:01;;;;;;;6.18;2.45;;;20.70;53.00;;;;;;6281121;28;20048;-76
2021/06/01 04:21:02;;;;;;;3.85;2.42;;;20.60;53.00;;;;;;6299974;28;20442;-75
2021/06/01 04:24:04;;;;;;;6.38;2.28;;;20.60;53.00;;;;;;6298175;28;20047;-75
2021/06/01 04:27:06;;;;;;;3.67;2.35;;;20.60;53.10;;;;;;6280977;28;20036;-76
2021/06/01 04:30:07;;;;;;;6.93;1.98;;;20.60;53.10;;;;;;6263687;28;20086;-75
2021/06/01 04:33:08;;;;;;;6.18;2.45;;;20.60;53.20;;;;;;6279376;28;20145;-75
2021/06/01 04:36:10;;;;;;;3.45;2.08;;;20.50;53.20;;;;;;6287526;28;20036;-76
2021/06/01 04:39:11;;;;;;;8.50;2.05;;;20.50;53.20;;;;;;6280644;28;20036;-75
2021/06/01 04:42:12;;;;;;;5.57;2.35;;;20.50;53.20;;;;;;6280403;28;20106;-75
2021/06/01 04:45:15;;;;;;;3.13;2.08;;;20.50;53.20;;;;;;6281177;28;20120;-75
2021/06/01 04:48:16;;;;;;;3.55;2.20;;;20.50;53.20;;;;;;6280684;28;20111;-75
2021/06/01 04:51:17;;;;;;;3.95;2.17;;;20.50;53.20;;;;;;6280330;28;20028;-77
2021/06/01 04:54:18;;;;;;;7.45;2.20;;;20.50;53.40;;;;;;6263327;28;20033;-75
2021/06/01 04:57:19;;;;;;;2.97;2.22;;;20.50;53.40;;;;;;6296569;28;20119;-75
2021/06/01 05:00:20;;;;;;;4.57;2.25;;;20.50;53.40;;;;;;6280475;28;20090;-75
2021/06/01 05:03:21;;;;;;;7.18;2.63;;;20.60;53.40;;;;;;6297809;28;20051;-76
2021/06/01 05:06:22;;;;;;;7.63;2.33;;;20.60;53.30;;;;;;6279025;28;20450;-76
2021/06/01 05:09:25;;;;;;;4.30;2.33;;;20.70;53.20;;;;;;6266747;28;20037;-76
2021/06/01 05:12:27;;;;;;;7.22;2.92;;;20.70;53.10;;;;;;6288005;28;20102;-75
2021/06/01 05:15:28;;;;;;;4.82;2.13;;;20.80;53.00;;;;;;6256243;28;20350;-76
2021/06/01 05:18:29;;;;;;;4.22;2.22;;;20.80;52.80;;;;;;6255547;28;20055;-76
2021/06/01 05:21:30;;;;;;;5.63;2.90;;;20.80;52.60;;;;;;6297797;28;20037;-76
2021/06/01 05:24:31;;;;;;;3.65;2.22;;;20.80;52.50;;;;;;6298106;28;20458;-76
2021/06/01 05:27:32;;;;;;;6.22;2.50;;;20.80;52.40;;;;;;6280379;28;20032;-77
2021/06/01 05:31:20;;;;;;;4.35;2.60;;;20.90;52.40;;;;;;6298545;28;20036;-76
2021/06/01 05:33:58;;;;;;;4.10;2.38;;;21.00;52.30;;;;;;6293447;28;20377;-76
2021/06/01 05:36:59;;;;;;;6.85;2.50;;;21.10;52.20;;;;;;6320176;28;20119;-77
2021/06/01 05:40:00;;;;;;;8.35;3.40;;;21.10;52.00;;;;;;6281937;28;20035;-76
2021/06/01 05:43:01;;;;;;;4.28;2.58;;;21.20;51.90;;;;;;6261403;28;20025;-76
2021/06/01 05:46:02;;;;;;;2.67;2.15;;;21.20;51.90;;;;;;6262362;28;20032;-76
2021/06/01 05:49:03;;;;;;;26.38;3.78;;;21.20;51.70;;;;;;6267740;28;20449;-76
2021/06/01 05:52:04;;;;;;;3.75;2.42;;;21.30;51.60;;;;;;6275646;28;20028;-77
2021/06/01 05:55:07;;;;;;;6.18;3.08;;;21.30;51.50;;;;;;6261853;28;20398;-77
2021/06/01 05:58:08;;;;;;;4.72;2.42;;;21.40;51.50;;;;;;6284792;28;20036;-76
2021/06/01 06:01:09;;;;;;;8.45;3.47;;;21.50;51.40;;;;;;6261666;28;20318;-76
2021/06/01 06:04:09;;;;;;;4.63;2.67;;;21.50;51.20;;;;;;6293876;28;20039;-77
2021/06/01 06:07:10;;;;;;;5.10;2.50;;;21.60;51.00;;;;;;6295801;28;22226;-76
2021/06/01 06:10:13;;;;;;;11.45;3.10;;;21.70;50.70;;;;;;6284953;28;20102;-75
2021/06/01 06:13:16;;;;;;;6.85;2.38;;;21.70;50.60;;;;;;6277290;28;20037;-75
2021/06/01 06:16:20;;;;;;;3.83;2.33;;;21.70;50.50;;;;;;6278114;28;20509;-75
2021/06/01 06:19:22;;;;;;;6.28;2.55;;;21.80;50.30;;;;;;6278978;28;20032;-77
2021/06/01 06:22:22;;;;;;;3.70;2.55;;;21.90;50.10;;;;;;6254455;28;20029;-76
2021/06/01 06:25:24;;;;;;;4.97;2.60;;;22.10;50.00;;;;;;6253585;28;20037;-76
2021/06/01 06:28:25;;;;;;;8.43;2.60;;;22.10;49.70;;;;;;6252830;28;20402;-76
2021/06/01 06:31:26;;;;;;;6.15;2.70;;;22.20;49.60;;;;;;6270474;28;20041;-76
2021/06/01 06:34:27;;;;;;;7.47;3.05;;;22.30;49.40;;;;;;6269614;28;20067;-76
2021/06/01 06:37:28;;;;;;;7.07;2.65;;;22.40;49.10;;;;;;6253621;28;20118;-76
2021/06/01 06:40:29;;;;;;;4.70;2.25;;;22.40;48.90;;;;;;6259397;28;20036;-76
2021/06/01 06:43:30;;;;;;;6.63;3.63;;;22.50;48.80;;;;;;6294385;28;20032;-76
2021/06/01 06:46:38;;;;;;;8.18;2.60;;;22.50;48.60;;;;;;6278091;28;20043;-76
2021/06/01 06:49:39;;;;;;;6.30;2.70;;;22.70;48.40;;;;;;6278303;28;20352;-76
2021/06/01 06:52:41;;;;;;;3.33;2.35;;;22.80;47.90;;;;;;6293940;28;20353;-76
2021/06/01 06:55:42;;;;;;;3.47;2.05;;;22.90;47.70;;;;;;6277616;28;20029;-76
2021/06/01 06:58:43;;;;;;;21.80;9.00;;;23.00;47.60;;;;;;6293885;28;20476;-76
2021/06/01 07:01:45;;;;;;;19.70;3.70;;;23.00;47.50;;;;;;6292967;28;20028;-77
2021/06/01 07:04:46;;;;;;;4.95;2.28;;;23.20;47.50;;;;;;6319828;28;20040;-76
2021/06/01 07:07:49;;;;;;;11.20;2.83;;;23.20;47.40;;;;;;6305345;28;20063;-75
2021/06/01 07:10:50;;;;;;;4.72;2.40;;;23.40;47.20;;;;;;6294259;28;20469;-76
2021/06/01 07:14:05;;;;;;;5.80;2.90;;;23.50;46.80;;;;;;6260402;28;20047;-77
2021/06/01 07:17:06;;;;;;;3.25;2.08;;;23.60;46.40;;;;;;6260145;28;20052;-77
2021/06/01 07:20:08;;;;;;;6.28;2.85;;;24.10;45.80;;;;;;6278241;28;20175;-77
2021/06/01 07:23:09;;;;;;;7.45;3.05;;;24.30;45.10;;;;;;6280566;28;20028;-76
2021/06/01 07:26:10;;;;;;;5.88;2.35;;;24.40;44.80;;;;;;6289446;28;20051;-76
2021/06/01 07:29:11;;;;;;;4.10;2.58;;;24.30;44.80;;;;;;6334202;28;20044;-78
2021/06/01 07:32:12;;;;;;;5.80;2.50;;;24.20;44.50;;;;;;6305550;28;20479;-77
2021/06/01 07:35:16;;;;;;;8.82;2.80;;;24.20;44.70;;;;;;6287141;28;20063;-77
2021/06/01 07:38:16;;;;;;;3.40;2.10;;;24.20;44.80;;;;;;6278851;28;20051;-77
2021/06/01 07:41:17;;;;;;;7.72;2.72;;;24.30;44.80;;;;;;6281177;28;20040;-75
2021/06/01 07:44:18;;;;;;;6.70;2.33;;;24.30;44.60;;;;;;6281638;28;20454;-76
2021/06/01 07:47:19;;;;;;;4.20;2.45;;;24.40;44.50;;;;;;6264958;28;20028;-76
2021/06/01 07:50:22;;;;;;;6.47;2.88;;;24.40;44.20;;;;;;6282247;28;20032;-76
2021/06/01 07:53:22;;;;;;;3.97;2.47;;;24.50;44.00;;;;;;6297462;28;20028;-75
2021/06/01 07:56:24;;;;;;;4.25;2.38;;;24.50;43.90;;;;;;6296950;28;20048;-75
2021/06/01 07:59:25;;;;;;;9.40;3.03;;;24.60;43.70;;;;;;6280862;28;20032;-76
2021/06/01 08:02:26;;;;;;;3.90;2.30;;;24.60;43.50;;;;;;6280958;28;20473;-76
2021/06/01 08:05:27;;;;;;;6.45;2.17;;;24.70;43.50;;;;;;6298639;28;20044;-76
2021/06/01 08:08:28;;;;;;;5.60;2.90;;;24.80;43.50;;;;;;6280499;28;20056;-77
2021/06/01 08:11:29;;;;;;;10.30;2.58;;;24.90;43.20;;;;;;6279570;28;20398;-76
2021/06/01 08:14:30;;;;;;;15.18;3.42;;;25.10;43.10;;;;;;6264075;28;20040;-76
2021/06/01 08:17:31;;;;;;;18.63;3.03;;;25.20;42.80;;;;;;6281048;28;20040;-76
2021/06/01 08:23:34;;;;;;;9.13;3.08;;;25.50;42.60;;;;;;6280749;28;20101;-77
2021/06/01 08:26:37;;;;;;;5.78;2.42;;;25.70;42.50;;;;;;6297433;28;20040;-77
2021/06/01 08:29:38;;;;;;;3.63;2.70;;;25.80;42.30;;;;;;6296439;28;20047;-76
2021/06/01 08:32:39;;;;;;;14.25;3.00;;;25.90;42.10;;;;;;6296154;28;20334;-75
2021/06/01 08:35:40;;;;;;;4.57;2.45;;;26.10;41.90;;;;;;6279722;28;20448;-75
2021/06/01 08:38:41;;;;;;;7.40;2.70;;;26.30;41.70;;;;;;6294086;28;20040;-77
2021/06/01 08:41:43;;;;;;;32.28;3.08;;;26.50;41.20;;;;;;6262888;28;20037;-75
2021/06/01 08:44:48;;;;;;;48.05;4.15;;;26.60;40.90;;;;;;6281477;28;20028;-75
2021/06/01 08:47:49;;;;;;;18.77;2.90;;;26.70;40.60;;;;;;6281224;28;20024;-76
2021/06/01 08:50:53;;;;;;;13.00;2.72;;;26.80;40.50;;;;;;6267977;28;20516;-76
2021/06/01 08:53:57;;;;;;;15.57;2.70;;;26.80;40.20;;;;;;6305938;28;20068;-76
2021/06/01 08:56:58;;;;;;;6.20;2.58;;;27.00;39.90;;;;;;6323172;28;20071;-76
2021/06/01 08:59:59;;;;;;;7.97;2.25;;;27.20;39.20;;;;;;6323749;28;20028;-76
2021/06/01 09:03:15;;;;;;;10.27;2.63;;;27.10;38.60;;;;;;6305174;28;20065;-77
2021/06/01 09:09:35;;;;;;;3.40;2.22;;;27.00;38.90;;;;;;6307120;28;20445;-76
2021/06/01 09:13:01;;;;;;;12.70;5.35;;;27.00;38.90;;;;;;6261131;28;20132;-77
2021/06/01 09:22:42;;;;;;;11.73;2.42;;;27.10;39.40;;;;;;6268445;28;20113;-76
2021/06/01 09:25:48;;;;;;;28.23;4.00;;;27.30;39.40;;;;;;6295172;28;20097;-76
2021/06/01 09:29:08;;;;;;;8.45;2.15;;;27.30;39.30;;;;;;6277735;28;20029;-76
2021/06/01 09:32:16;;;;;;;6.95;2.20;;;27.50;39.00;;;;;;6296974;28;20032;-76
2021/06/01 09:35:17;;;;;;;26.75;6.05;;;27.60;38.80;;;;;;6301835;28;20036;-77
2021/06/01 09:38:20;;;;;;;4.68;2.05;;;27.90;38.50;;;;;;6293031;28;20135;-77
2021/06/01 09:41:29;;;;;;;4.25;2.72;;;28.20;38.00;;;;;;6260500;28;20093;-76
2021/06/01 09:44:30;;;;;;;9.38;2.42;;;28.40;37.50;;;;;;6276672;28;20040;-77
2021/06/01 09:47:42;;;;;;;26.70;3.90;;;28.60;37.20;;;;;;6277156;28;20033;-78
2021/06/01 09:50:59;;;;;;;5.10;2.15;;;28.80;37.00;;;;;;6294065;28;20128;-77
2021/06/01 09:54:39;;;;;;;4.57;2.17;;;29.10;36.60;;;;;;6276737;28;20378;-76
2021/06/01 09:57:44;;;;;;;3.90;1.92;;;29.30;36.10;;;;;;6292831;28;20116;-75
2021/06/01 10:00:46;;;;;;;2.83;2.10;;;29.30;35.90;;;;;;6275873;28;20492;-76
2021/06/01 10:03:51;;;;;;;7.85;3.35;;;29.20;35.80;;;;;;6292731;28;20032;-77
2021/06/01 10:06:53;;;;;;;5.85;2.17;;;29.20;35.80;;;;;;6276752;28;20349;-77
2021/06/01 10:09:54;;;;;;;21.08;2.90;;;29.20;35.80;;;;;;6292783;28;20071;-78
2021/06/01 10:12:59;;;;;;;10.93;2.85;;;29.20;35.70;;;;;;6259124;28;20032;-76
2021/06/01 10:16:02;;;;;;;6.63;2.47;;;29.10;35.80;;;;;;6292838;28;20040;-77
2021/06/01 10:19:04;;;;;;;5.85;2.60;;;29.10;35.30;;;;;;6277135;28;20098;-78
2021/06/01 10:22:05;;;;;;;8.50;2.38;;;29.10;35.30;;;;;;6276790;28;20105;-78
2021/06/01 10:25:07;;;;;;;11.68;2.25;;;29.10;35.20;;;;;;6293931;28;20488;-77
2021/06/01 10:28:10;;;;;;;8.55;2.17;;;29.20;35.10;;;;;;6260475;28;20048;-76
2021/06/01 10:31:14;;;;;;;6.93;2.10;;;29.30;34.70;;;;;;6282583;28;20039;-76
2021/06/01 10:34:18;;;;;;;6.25;2.38;;;29.30;34.60;;;;;;6277542;28;20060;-77
2021/06/01 10:50:54;;;;;;;6.25;2.13;;;30.00;33.20;;;;;;6302547;28;20029;-75
2021/06/01 10:53:55;;;;;;;6.72;2.08;;;30.00;33.30;;;;;;6258703;28;20032;-77
2021/06/01 10:56:56;;;;;;;4.55;1.65;;;30.00;33.40;;;;;;6257239;28;20509;-77
2021/06/01 11:03:03;;;;;;;6.47;1.80;;;30.70;32.80;;;;;;6274861;28;20052;-77
2021/06/01 11:06:08;;;;;;;15.10;2.53;;;31.60;31.40;;;;;;6259449;28;20036;-78
2021/06/01 11:09:34;;;;;;;2.63;2.10;;;31.90;30.70;;;;;;6250724;28;20460;-76
2021/06/01 11:12:40;;;;;;;7.10;2.63;;;32.70;29.90;;;;;;6272955;28;20365;-77
2021/06/01 11:15:41;;;;;;;5.00;1.90;;;33.30;29.20;;;;;;6295564;28;20071;-76
2021/06/01 11:18:48;;;;;;;11.93;1.90;;;33.20;29.10;;;;;;6280441;28;20036;-76
2021/06/01 11:22:02;;;;;;;1.88;1.67;;;33.40;29.10;;;;;;6270921;28;20037;-75
2021/06/01 11:35:04;;;;;;;4.43;2.10;;;34.50;27.50;;;;;;6321042;28;20138;-76
2021/06/01 11:38:16;;;;;;;4.78;2.05;;;34.20;27.40;;;;;;6298741;28;20412;-77
2021/06/01 11:44:42;;;;;;;8.88;2.10;;;33.70;28.10;;;;;;6285986;28;20029;-75
2021/06/01 11:48:06;;;;;;;11.55;1.83;;;34.10;27.70;;;;;;6279700;28;20047;-77
2021/06/01 11:51:16;;;;;;;7.45;2.03;;;34.80;27.10;;;;;;6294865;28;20138;-76
2021/06/01 11:54:17;;;;;;;9.77;2.00;;;35.60;26.40;;;;;;6296799;28;20414;-76
2021/06/01 11:57:37;;;;;;;4.40;2.10;;;36.00;26.30;;;;;;6294963;28;20457;-76
2021/06/01 12:04:07;;;;;;;6.85;1.50;;;35.80;25.90;;;;;;6293946;28;20097;-77
2021/06/01 12:14:01;;;;;;;6.78;1.48;;;36.50;25.40;;;;;;6277733;28;20446;-76
2021/06/01 12:17:16;;;;;;;1.73;1.63;;;36.70;25.20;;;;;;6254316;28;20425;-76
2021/06/01 12:20:17;;;;;;;5.07;1.75;;;36.60;24.90;;;;;;6255929;28;20053;-76
2021/06/01 12:23:28;;;;;;;4.68;2.22;;;36.60;24.90;;;;;;6253985;28;20108;-76
2021/06/01 12:26:42;;;;;;;2.35;1.33;;;36.60;25.10;;;;;;6269924;28;20462;-75
2021/06/01 12:33:09;;;;;;;3.22;1.60;;;36.60;24.80;;;;;;6270371;28;20067;-77
2021/06/01 13:20:04;;;;;;;6.78;1.60;;;39.30;21.60;;;;;;6172468;28;20067;-76
2021/06/01 13:38:09;;;;;;;14.23;1.90;;;41.80;20.00;;;;;;6150208;28;20051;-77
2021/06/01 13:48:03;;;;;;;2.60;1.48;;;41.30;19.50;;;;;;6151301;28;20205;-76
2021/06/01 14:36:41;;;;;;;2.53;1.40;;;36.90;23.50;;;;;;6271308;28;20055;-77
2021/06/01 15:23:18;;;;;;;2.22;1.58;;;42.30;19.00;;;;;;6279253;28;20036;-75
2021/06/01 15:49:51;;;;;;;5.85;2.08;;;40.00;19.90;;;;;;6178123;28;20109;-76
2021/06/01 16:43:25;;;;;;;4.18;1.38;;;38.70;20.90;;;;;;6307625;28;20051;-76
2021/06/01 17:03:13;;;;;;;2.67;1.42;;;35.80;22.90;;;;;;6293896;28;20456;-76
2021/06/01 17:06:26;;;;;;;5.10;1.90;;;34.90;23.70;;;;;;6276783;28;20108;-76
2021/06/01 17:12:31;;;;;;;5.55;1.77;;;33.40;25.50;;;;;;6277300;28;20043;-76
2021/06/01 17:15:34;;;;;;;4.63;1.50;;;32.70;26.10;;;;;;6294325;28;20465;-77
2021/06/01 17:22:04;;;;;;;3.13;1.75;;;31.70;27.30;;;;;;6297965;28;21836;-76
2021/06/01 17:37:55;;;;;;;4.40;1.60;;;30.20;30.00;;;;;;6293788;28;20200;-77
2021/06/01 17:40:59;;;;;;;4.63;2.20;;;30.00;30.30;;;;;;6276675;28;20400;-76
2021/06/01 17:44:04;;;;;;;6.60;2.08;;;29.90;31.00;;;;;;6275601;28;20029;-76
2021/06/01 17:47:10;;;;;;;3.55;1.92;;;29.70;31.10;;;;;;6277130;28;20032;-76
2021/06/01 17:50:13;;;;;;;7.55;1.75;;;29.60;31.50;;;;;;6262540;28;20124;-76
2021/06/01 17:53:16;;;;;;;5.63;1.80;;;29.50;31.90;;;;;;6277820;28;20453;-76
2021/06/01 17:56:21;;;;;;;3.92;1.52;;;29.30;32.10;;;;;;6278485;28;20363;-77
2021/06/01 17:59:23;;;;;;;8.38;1.80;;;29.20;32.40;;;;;;6277757;28;21471;-76
2021/06/01 18:02:24;;;;;;;6.75;1.85;;;29.10;32.70;;;;;;6251791;28;20032;-77
2021/06/01 18:05:31;;;;;;;5.57;1.77;;;29.00;33.30;;;;;;6267198;28;20049;-77
2021/06/01 18:08:40;;;;;;;2.92;2.08;;;28.90;33.40;;;;;;6261325;28;20034;-75
2021/06/01 19:25:19;;;;;;;4.22;1.40;;;26.50;38.50;;;;;;6171031;28;20042;-76
2021/06/01 19:52:06;;;;;;;6.05;1.60;;;25.80;40.40;;;;;;6192373;28;20042;-77
2021/06/01 19:55:08;;;;;;;4.32;1.63;;;25.70;40.80;;;;;;6195775;28;20129;-76
2021/06/01 19:58:10;;;;;;;2.05;1.33;;;25.60;41.20;;;;;;6207242;28;20073;-76
2021/06/01 20:01:13;;;;;;;6.63;1.80;;;25.60;41.30;;;;;;6218542;28;20172;-76
2021/06/01 20:04:14;;;;;;;8.75;1.75;;;25.50;41.50;;;;;;6188056;28;20054;-75
2021/06/01 20:07:15;;;;;;;3.30;1.60;;;25.40;41.70;;;;;;6203488;28;20064;-76
2021/06/01 20:10:17;;;;;;;6.85;1.55;;;25.40;41.70;;;;;;6219256;28;20044;-76
2021/06/01 20:13:18;;;;;;;5.45;1.60;;;25.30;41.90;;;;;;6193595;28;20034;-75
2021/06/01 20:16:24;;;;;;;2.38;1.50;;;25.20;42.00;;;;;;6220232;28;20105;-77
2021/06/01 20:19:28;;;;;;;3.47;1.52;;;25.20;42.20;;;;;;6220836;28;20050;-76
2021/06/01 20:22:31;;;;;;;6.03;1.80;;;25.10;42.40;;;;;;6220350;28;20034;-75
2021/06/01 20:25:32;;;;;;;2.63;1.40;;;25.10;42.60;;;;;;6238206;28;20028;-76
2021/06/01 20:28:38;;;;;;;4.25;1.73;;;25.00;42.80;;;;;;6277962;28;20052;-76
2021/06/01 20:31:42;;;;;;;9.52;1.95;;;24.90;42.90;;;;;;6263016;28;20067;-76
2021/06/01 20:34:43;;;;;;;3.92;2.03;;;24.90;43.00;;;;;;6269429;28;20123;-75
2021/06/01 20:37:44;;;;;;;3.70;1.50;;;24.80;43.00;;;;;;6294635;28;20044;-75
2021/06/01 20:40:46;;;;;;;3.10;1.60;;;24.80;43.20;;;;;;6295185;28;20028;-77
2021/06/01 20:43:47;;;;;;;3.25;1.52;;;24.70;43.10;;;;;;6295642;28;20421;-76
2021/06/01 20:46:48;;;;;;;3.45;1.50;;;24.70;43.20;;;;;;6278706;28;20024;-76
2021/06/01 20:49:51;;;;;;;4.47;1.70;;;24.70;43.30;;;;;;6299959;28;20339;-76
2021/06/01 20:52:52;;;;;;;2.88;1.70;;;24.60;43.50;;;;;;6296767;28;20037;-76
2021/06/01 20:55:54;;;;;;;3.22;2.03;;;24.50;43.60;;;;;;6251489;28;20358;-76
2021/06/01 20:58:58;;;;;;;2.53;1.30;;;24.50;43.70;;;;;;6278917;28;20032;-77
2021/06/01 21:02:01;;;;;;;3.15;1.50;;;24.50;44.10;;;;;;6297222;28;20115;-76
2021/06/01 21:05:02;;;;;;;2.40;1.50;;;24.40;44.20;;;;;;6298200;28;20036;-76
2021/06/01 21:08:06;;;;;;;4.88;1.75;;;24.40;44.20;;;;;;6297392;28;20032;-76
2021/06/01 21:11:08;;;;;;;2.22;1.50;;;24.30;44.40;;;;;;6263606;28;20049;-77
2021/06/01 21:14:10;;;;;;;5.95;1.70;;;24.30;44.50;;;;;;6281159;28;20055;-75
2021/06/01 21:17:11;;;;;;;3.50;1.60;;;24.30;44.60;;;;;;6280269;28;20047;-75
2021/06/01 21:20:15;;;;;;;3.92;1.80;;;24.30;44.70;;;;;;6299532;28;20350;-76
2021/06/01 21:23:17;;;;;;;2.50;1.88;;;24.20;44.80;;;;;;6298518;28;20051;-76
2021/06/01 21:26:18;;;;;;;3.70;1.60;;;24.20;45.10;;;;;;6298655;28;20029;-76
2021/06/01 21:29:19;;;;;;;7.93;1.33;;;24.10;45.30;;;;;;6300507;28;20032;-76
2021/06/01 21:32:37;;;;;;;3.10;1.60;;;24.00;45.30;;;;;;6305844;28;20357;-76
2021/06/01 21:35:41;;;;;;;5.72;1.67;;;24.00;45.40;;;;;;6311407;28;20544;-76
2021/06/01 21:38:45;;;;;;;2.88;1.58;;;24.00;45.30;;;;;;6304381;28;20101;-76
2021/06/01 21:41:47;;;;;;;2.75;1.42;;;24.00;45.40;;;;;;6278563;28;20036;-76
2021/06/01 21:44:52;;;;;;;3.65;1.58;;;24.00;45.40;;;;;;6273087;28;20370;-76
2021/06/01 21:47:56;;;;;;;2.90;1.60;;;23.90;45.40;;;;;;6251200;28;20040;-75
2021/06/01 21:50:57;;;;;;;2.53;1.40;;;23.90;45.50;;;;;;6273265;28;20120;-75
2021/06/01 21:53:59;;;;;;;3.22;1.38;;;23.90;45.50;;;;;;6288961;28;20029;-76
2021/06/01 21:57:00;;;;;;;2.65;1.55;;;23.90;45.40;;;;;;6288607;28;20543;-76
2021/06/01 22:00:09;;;;;;;10.45;1.83;;;23.90;45.40;;;;;;6271691;28;20045;-75
2021/06/01 22:03:14;;;;;;;1.77;1.52;;;23.80;45.40;;;;;;6272490;28;20040;-76
2021/06/01 22:06:15;;;;;;;2.63;1.27;;;23.80;45.50;;;;;;6288739;28;20037;-76
2021/06/01 22:09:16;;;;;;;1.80;1.20;;;23.80;45.30;;;;;;6273233;28;20358;-75
2021/06/01 22:12:17;;;;;;;4.80;1.73;;;23.80;45.30;;;;;;6288487;28;20033;-75
2021/06/01 22:15:39;;;;;;;3.10;2.13;;;23.70;45.30;;;;;;6271781;28;20048;-76
2021/06/01 22:18:49;;;;;;;2.70;1.52;;;23.70;45.20;;;;;;6272168;28;20088;-76
2021/06/01 22:21:50;;;;;;;2.72;1.40;;;23.70;45.00;;;;;;6273139;28;20044;-76
2021/06/01 22:24:53;;;;;;;4.38;1.80;;;23.70;44.90;;;;;;6289700;28;20048;-76
2021/06/01 22:27:54;;;;;;;2.80;1.27;;;23.70;44.80;;;;;;6272751;28;20482;-76
2021/06/01 22:30:55;;;;;;;2.00;1.20;;;23.60;44.60;;;;;;6272841;28;20035;-76
2021/06/01 22:33:57;;;;;;;3.58;1.45;;;23.70;44.50;;;;;;6289301;28;20098;-75
2021/06/01 22:36:59;;;;;;;2.05;1.40;;;23.70;44.40;;;;;;6239394;28;20359;-74
2021/06/01 22:40:00;;;;;;;3.72;1.35;;;23.70;44.20;;;;;;6264365;28;20049;-74
2021/06/01 22:43:03;;;;;;;3.67;1.35;;;23.70;44.00;;;;;;6264375;28;20037;-75
2021/06/01 22:46:25;;;;;;;2.38;1.33;;;23.70;43.90;;;;;;6265302;28;20044;-76
2021/06/01 22:49:26;;;;;;;1.85;1.20;;;23.60;43.80;;;;;;6253855;28;20065;-76
2021/06/01 22:52:30;;;;;;;4.22;1.55;;;23.60;43.70;;;;;;6248842;28;20044;-76
2021/06/01 22:55:31;;;;;;;3.17;1.50;;;23.70;43.70;;;;;;6264609;28;20437;-75
2021/06/01 22:58:38;;;;;;;1.35;1.20;;;23.70;43.60;;;;;;6231419;28;20102;-76